createdAt,value
2019-05-30T00:00:21.845Z,49.51
2019-05-30T00:01:26.763Z,49.60
2019-05-30T00:02:32.334Z,49.61
2019-05-30T00:03:37.369Z,49.66
2019-05-30T00:04:42.917Z,49.67
2019-05-30T00:05:48.327Z,49.68
2019-05-30T00:06:54.296Z,49.71
2019-05-30T00:08:00.316Z,49.74
2019-05-30T00:09:10.051Z,49.77
2019-05-30T00:10:15.246Z,49.76
2019-05-30T00:11:20.929Z,49.76
2019-05-30T00:12:26.201Z,49.80
2019-05-30T00:13:31.744Z,49.83
2019-05-30T00:14:36.646Z,49.86
2019-05-30T00:15:42.557Z,49.88
2019-05-30T00:16:47.476Z,49.89
2019-05-30T00:17:53.089Z,49.92
2019-05-30T00:18:58.745Z,49.95
2019-05-30T00:20:05.788Z,50.02
2019-05-30T00:21:10.981Z,50.06
2019-05-30T00:22:16.718Z,50.09
2019-05-30T00:23:21.659Z,50.17
2019-05-30T00:24:27.182Z,50.18
2019-05-30T00:25:32.138Z,50.23
2019-05-30T00:26:37.828Z,50.27
2019-05-30T00:27:43.007Z,50.31
2019-05-30T00:28:48.505Z,50.35
2019-05-30T00:29:53.763Z,50.41
2019-05-30T00:31:00.414Z,50.48
2019-05-30T00:32:05.599Z,50.48
2019-05-30T00:33:11.102Z,50.53
2019-05-30T00:34:15.996Z,50.57
2019-05-30T00:35:21.524Z,50.60
2019-05-30T00:36:26.485Z,50.59
2019-05-30T00:37:32.718Z,50.58
2019-05-30T00:38:37.641Z,50.57
2019-05-30T00:39:43.194Z,50.57
2019-05-30T00:40:48.115Z,50.57
2019-05-30T00:41:53.778Z,50.60
2019-05-30T00:42:59.932Z,50.65
2019-05-30T00:44:06.478Z,50.72
2019-05-30T00:45:20.820Z,50.74
2019-05-30T00:46:19.159Z,50.77
2019-05-30T00:47:24.092Z,50.78
2019-05-30T00:48:29.996Z,50.83
2019-05-30T00:49:34.944Z,50.85
2019-05-30T00:50:40.520Z,50.86
2019-05-30T00:51:45.695Z,50.83
2019-05-30T00:52:51.284Z,50.89
2019-05-30T00:53:56.507Z,50.92
2019-05-30T00:55:02.958Z,50.94
2019-05-30T00:56:08.344Z,50.93
2019-05-30T00:57:14.149Z,50.92
2019-05-30T00:58:19.086Z,50.94
2019-05-30T00:59:24.890Z,50.94
2019-05-30T01:00:42.958Z,50.91
2019-05-30T01:01:37.142Z,50.92
2019-05-30T01:02:42.193Z,50.95
2019-05-30T01:03:47.983Z,50.97
2019-05-30T01:04:52.956Z,51.02
2019-05-30T01:05:58.782Z,51.06
2019-05-30T01:07:05.237Z,51.12
2019-05-30T01:08:11.384Z,51.18
2019-05-30T01:09:16.436Z,51.26
2019-05-30T01:10:22.099Z,51.35
2019-05-30T01:11:27.051Z,51.42
2019-05-30T01:12:32.954Z,51.43
2019-05-30T01:13:37.945Z,51.47
2019-05-30T01:14:43.755Z,51.54
2019-05-30T01:15:48.786Z,51.58
2019-05-30T01:16:58.913Z,51.62
2019-05-30T01:18:05.230Z,51.66
2019-05-30T01:19:11.265Z,51.70
2019-05-30T01:20:16.636Z,51.74
2019-05-30T01:21:22.383Z,51.82
2019-05-30T01:22:27.316Z,51.90
2019-05-30T01:23:32.821Z,51.99
2019-05-30T01:24:37.725Z,52.04
2019-05-30T01:25:43.281Z,52.10
2019-05-30T01:26:48.201Z,52.16
2019-05-30T01:27:53.703Z,52.24
2019-05-30T01:28:59.373Z,52.27
2019-05-30T01:30:05.771Z,52.36
2019-05-30T01:31:11.718Z,52.44
2019-05-30T01:32:30.094Z,52.53
2019-05-30T01:33:35.071Z,52.58
2019-05-30T01:34:40.663Z,52.63
2019-05-30T01:35:45.887Z,52.69
2019-05-30T01:36:51.405Z,52.75
2019-05-30T01:37:57.581Z,52.81
2019-05-30T01:39:03.845Z,52.83
2019-05-30T01:40:09.380Z,52.83
2019-05-30T01:41:17.523Z,52.83
2019-05-30T01:42:21.618Z,52.84
2019-05-30T01:43:27.512Z,52.89
2019-05-30T01:44:32.472Z,52.91
2019-05-30T01:45:38.112Z,52.95
2019-05-30T01:46:43.078Z,53.05
2019-05-30T01:47:48.788Z,53.08
2019-05-30T01:48:53.734Z,53.13
2019-05-30T01:50:00.328Z,53.17
2019-05-30T01:51:06.546Z,53.18
2019-05-30T01:52:12.155Z,53.18
2019-05-30T01:53:17.330Z,53.23
2019-05-30T01:54:22.863Z,53.24
2019-05-30T01:55:27.834Z,53.24
2019-05-30T01:56:33.376Z,53.24
2019-05-30T01:57:38.647Z,53.29
2019-05-30T01:58:44.155Z,53.32
2019-05-30T01:59:49.102Z,53.34
2019-05-30T02:00:54.612Z,53.40
2019-05-30T02:02:00.833Z,53.42
2019-05-30T02:03:07.061Z,53.45
2019-05-30T02:04:12.314Z,53.47
2019-05-30T02:05:18.625Z,53.49
2019-05-30T02:06:23.572Z,53.51
2019-05-30T02:07:29.078Z,53.51
2019-05-30T02:08:34.414Z,53.51
2019-05-30T02:09:39.995Z,53.49
2019-05-30T02:10:45.041Z,53.50
2019-05-30T02:11:50.548Z,53.53
2019-05-30T02:12:55.838Z,53.58
2019-05-30T02:14:01.639Z,53.62
2019-05-30T02:15:07.754Z,53.69
2019-05-30T02:16:13.344Z,53.74
2019-05-30T02:17:18.569Z,53.78
2019-05-30T02:18:24.214Z,53.79
2019-05-30T02:19:29.206Z,53.82
2019-05-30T02:20:34.793Z,53.87
2019-05-30T02:21:39.721Z,53.88
2019-05-30T02:22:45.405Z,53.90
2019-05-30T02:23:50.343Z,53.94
2019-05-30T02:24:55.925Z,53.94
2019-05-30T02:26:02.110Z,53.90
2019-05-30T02:27:08.361Z,53.87
2019-05-30T02:28:13.282Z,53.87
2019-05-30T02:29:18.785Z,53.84
2019-05-30T02:30:23.884Z,53.84
2019-05-30T02:31:39.211Z,53.86
2019-05-30T02:32:36.097Z,53.86
2019-05-30T02:33:41.926Z,53.83
2019-05-30T02:34:46.886Z,53.88
2019-05-30T02:35:52.821Z,53.91
2019-05-30T02:36:57.791Z,53.91
2019-05-30T02:38:05.078Z,53.92
2019-05-30T02:39:11.858Z,53.96
2019-05-30T02:40:19.198Z,53.94
2019-05-30T02:41:25.591Z,53.91
2019-05-30T02:42:31.225Z,53.86
2019-05-30T02:43:36.184Z,53.79
2019-05-30T02:44:41.722Z,53.76
2019-05-30T02:45:46.660Z,53.75
2019-05-30T02:46:55.441Z,53.72
2019-05-30T02:48:01.264Z,53.66
2019-05-30T02:49:10.850Z,53.64
2019-05-30T02:50:14.360Z,53.63
2019-05-30T02:51:19.938Z,53.64
2019-05-30T02:52:25.169Z,53.66
2019-05-30T02:53:30.740Z,53.73
2019-05-30T02:54:35.643Z,53.76
2019-05-30T02:55:41.225Z,53.78
2019-05-30T02:56:46.233Z,53.78
2019-05-30T02:57:52.023Z,53.80
2019-05-30T02:58:57.024Z,53.84
2019-05-30T03:00:04.599Z,53.86
2019-05-30T03:01:11.928Z,53.90
2019-05-30T03:02:17.869Z,53.93
2019-05-30T03:03:22.950Z,53.98
2019-05-30T03:04:28.581Z,54.00
2019-05-30T03:05:33.958Z,54.01
2019-05-30T03:06:39.709Z,54.06
2019-05-30T03:07:44.810Z,54.09
2019-05-30T03:08:50.671Z,54.12
2019-05-30T03:09:56.239Z,54.16
2019-05-30T03:11:02.958Z,54.21
2019-05-30T03:12:11.065Z,54.27
2019-05-30T03:13:16.536Z,54.32
2019-05-30T03:14:21.818Z,54.37
2019-05-30T03:15:27.964Z,54.43
2019-05-30T03:16:32.859Z,54.51
2019-05-30T03:17:38.385Z,54.61
2019-05-30T03:18:43.372Z,54.67
2019-05-30T03:19:48.934Z,54.77
2019-05-30T03:20:54.011Z,54.83
2019-05-30T03:21:59.949Z,54.90
2019-05-30T03:23:05.930Z,54.97
2019-05-30T03:24:14.242Z,55.08
2019-05-30T03:25:19.374Z,55.19
2019-05-30T03:26:25.025Z,55.32
2019-05-30T03:27:30.282Z,55.48
2019-05-30T03:28:36.199Z,55.69
2019-05-30T03:29:41.254Z,55.89
2019-05-30T03:30:47.628Z,56.12
2019-05-30T03:31:53.515Z,56.42
2019-05-30T03:33:12.891Z,56.70
2019-05-30T03:34:16.932Z,56.97
2019-05-30T03:35:27.703Z,57.31
2019-05-30T03:36:29.769Z,57.49
2019-05-30T03:37:31.030Z,57.67
2019-05-30T03:38:36.110Z,57.75
2019-05-30T03:39:41.874Z,57.77
2019-05-30T03:40:47.064Z,57.88
2019-05-30T03:41:52.952Z,57.95
2019-05-30T03:42:58.004Z,58.00
2019-05-30T03:44:04.404Z,58.10
2019-05-30T03:45:13.547Z,58.15
2019-05-30T03:46:21.654Z,58.25
2019-05-30T03:47:29.602Z,58.31
2019-05-30T03:48:36.542Z,58.30
2019-05-30T03:49:44.014Z,58.34
2019-05-30T03:50:53.208Z,58.34
2019-05-30T03:52:01.228Z,58.34
2019-05-30T03:53:09.916Z,58.35
2019-05-30T03:54:16.029Z,58.35
2019-05-30T03:55:22.322Z,58.39
2019-05-30T03:56:35.530Z,58.40
2019-05-30T03:57:46.039Z,58.36
2019-05-30T03:59:08.194Z,58.37
2019-05-30T04:00:27.006Z,58.40
2019-05-30T04:01:37.871Z,58.39
2019-05-30T04:02:59.211Z,58.37
2019-05-30T04:04:14.492Z,58.36
2019-05-30T04:05:25.640Z,58.34
2019-05-30T04:06:33.979Z,58.35
2019-05-30T04:07:44.732Z,58.31
2019-05-30T04:08:52.762Z,58.29
2019-05-30T04:10:00.924Z,58.25
2019-05-30T04:11:10.453Z,58.20
2019-05-30T04:12:41.956Z,58.18
2019-05-30T04:13:54.264Z,58.20
2019-05-30T04:15:07.815Z,58.15
2019-05-30T04:16:13.602Z,58.15
2019-05-30T04:17:20.130Z,58.13
2019-05-30T04:18:25.474Z,58.13
2019-05-30T04:19:30.999Z,58.09
2019-05-30T04:20:35.916Z,58.07
2019-05-30T04:21:41.404Z,58.08
2019-05-30T04:22:46.417Z,58.07
2019-05-30T04:23:52.061Z,58.11
2019-05-30T04:24:56.967Z,58.14
2019-05-30T04:26:02.601Z,58.13
2019-05-30T04:27:08.464Z,58.11
2019-05-30T04:28:16.188Z,58.11
2019-05-30T04:29:22.167Z,58.07
2019-05-30T04:30:27.862Z,58.02
2019-05-30T04:31:32.868Z,57.97
2019-05-30T04:32:38.370Z,57.93
2019-05-30T04:33:43.576Z,57.93
2019-05-30T04:34:49.324Z,57.90
2019-05-30T04:35:54.244Z,57.85
2019-05-30T04:36:59.786Z,57.80
2019-05-30T04:38:04.899Z,57.81
2019-05-30T04:39:11.324Z,57.78
2019-05-30T04:40:17.713Z,57.74
2019-05-30T04:41:24.679Z,57.69
2019-05-30T04:42:29.582Z,57.63
2019-05-30T04:43:35.182Z,57.65
2019-05-30T04:44:40.168Z,57.66
2019-05-30T04:45:45.651Z,57.64
2019-05-30T04:46:50.922Z,57.63
2019-05-30T04:47:56.489Z,57.62
2019-05-30T04:49:01.440Z,57.59
2019-05-30T04:50:07.165Z,57.57
2019-05-30T04:51:12.610Z,57.56
2019-05-30T04:52:21.099Z,57.57
2019-05-30T04:53:26.428Z,57.59
2019-05-30T04:54:32.054Z,57.54
2019-05-30T04:55:37.040Z,57.52
2019-05-30T04:56:42.530Z,57.50
2019-05-30T04:57:47.446Z,57.47
2019-05-30T04:58:52.971Z,57.44
2019-05-30T04:59:57.965Z,57.41
2019-05-30T05:01:03.633Z,57.40
2019-05-30T05:02:08.532Z,57.39
2019-05-30T05:03:15.450Z,57.37
2019-05-30T05:04:21.627Z,57.33
2019-05-30T05:05:27.509Z,57.31
2019-05-30T05:06:32.489Z,57.29
2019-05-30T05:07:38.087Z,57.27
2019-05-30T05:08:43.015Z,57.21
2019-05-30T05:09:48.658Z,57.16
2019-05-30T05:10:53.694Z,57.10
2019-05-30T05:11:59.278Z,57.04
2019-05-30T05:13:04.250Z,57.07
2019-05-30T05:14:09.746Z,57.01
2019-05-30T05:15:16.433Z,56.93
2019-05-30T05:16:34.469Z,56.88
2019-05-30T05:17:29.501Z,56.84
2019-05-30T05:18:35.230Z,56.81
2019-05-30T05:19:40.174Z,56.78
2019-05-30T05:20:45.808Z,56.75
2019-05-30T05:21:50.838Z,56.69
2019-05-30T05:22:56.651Z,56.67
2019-05-30T05:24:01.719Z,56.63
2019-05-30T05:25:07.491Z,56.61
2019-05-30T05:26:13.435Z,56.59
2019-05-30T05:27:19.668Z,56.55
2019-05-30T05:28:24.800Z,56.53
2019-05-30T05:29:30.431Z,56.52
2019-05-30T05:30:35.534Z,56.55
2019-05-30T05:31:41.048Z,56.51
2019-05-30T05:32:45.959Z,56.47
2019-05-30T05:33:56.740Z,56.45
2019-05-30T05:34:58.744Z,56.39
2019-05-30T05:36:04.346Z,56.33
2019-05-30T05:37:09.528Z,56.28
2019-05-30T05:38:16.160Z,56.24
2019-05-30T05:39:22.209Z,56.20
2019-05-30T05:40:28.507Z,56.17
2019-05-30T05:41:33.594Z,56.14
2019-05-30T05:42:39.088Z,56.08
2019-05-30T05:43:43.993Z,56.02
2019-05-30T05:44:49.495Z,55.97
2019-05-30T05:45:54.575Z,55.90
2019-05-30T05:47:00.070Z,55.87
2019-05-30T05:48:05.130Z,55.84
2019-05-30T05:49:10.639Z,55.84
2019-05-30T05:50:16.939Z,55.80
2019-05-30T05:51:22.801Z,55.77
2019-05-30T05:52:28.887Z,55.74
2019-05-30T05:53:34.766Z,55.76
2019-05-30T05:54:39.729Z,55.78
2019-05-30T05:55:45.272Z,55.79
2019-05-30T05:56:50.272Z,55.81
2019-05-30T05:57:55.800Z,55.84
2019-05-30T05:59:00.738Z,55.83
2019-05-30T06:00:06.907Z,55.87
2019-05-30T06:01:11.825Z,55.88
2019-05-30T06:02:17.717Z,55.86
2019-05-30T06:03:24.300Z,55.87
2019-05-30T06:04:29.825Z,55.88
2019-05-30T06:05:34.900Z,55.87
2019-05-30T06:06:40.420Z,55.86
2019-05-30T06:07:45.542Z,55.84
2019-05-30T06:08:51.138Z,55.82
2019-05-30T06:09:56.080Z,55.83
2019-05-30T06:11:01.666Z,55.85
2019-05-30T06:12:06.659Z,55.90
2019-05-30T06:13:12.178Z,55.95
2019-05-30T06:14:17.803Z,56.03
2019-05-30T06:15:23.364Z,56.09
2019-05-30T06:16:28.461Z,56.22
2019-05-30T06:17:33.942Z,56.33
2019-05-30T06:18:38.890Z,56.45
2019-05-30T06:19:46.770Z,56.56
2019-05-30T06:20:51.066Z,56.66
2019-05-30T06:21:56.765Z,56.76
2019-05-30T06:23:01.928Z,56.94
2019-05-30T06:24:07.499Z,57.13
2019-05-30T06:25:12.588Z,57.26
2019-05-30T06:26:18.125Z,57.40
2019-05-30T06:27:23.992Z,57.47
2019-05-30T06:28:29.542Z,57.52
2019-05-30T06:29:34.791Z,57.62
2019-05-30T06:30:40.342Z,57.77
2019-05-30T06:31:45.300Z,57.96
2019-05-30T06:32:51.450Z,58.09
2019-05-30T06:33:56.462Z,58.29
2019-05-30T06:35:01.975Z,58.51
2019-05-30T06:36:07.329Z,58.66
2019-05-30T06:37:13.006Z,58.71
2019-05-30T06:38:19.054Z,58.76
2019-05-30T06:39:25.495Z,58.92
2019-05-30T06:40:32.204Z,59.10
2019-05-30T06:41:38.440Z,59.27
2019-05-30T06:42:43.619Z,59.44
2019-05-30T06:43:49.152Z,59.61
2019-05-30T06:44:54.074Z,59.72
2019-05-30T06:45:59.723Z,59.91
2019-05-30T06:47:05.046Z,60.00
2019-05-30T06:48:10.772Z,60.11
2019-05-30T06:49:15.821Z,60.18
2019-05-30T06:50:22.553Z,60.33
2019-05-30T06:51:28.972Z,60.33
2019-05-30T06:52:34.581Z,60.34
2019-05-30T06:53:39.625Z,60.42
2019-05-30T06:54:45.121Z,60.48
2019-05-30T06:55:50.321Z,60.45
2019-05-30T06:56:56.132Z,60.52
2019-05-30T06:58:01.108Z,60.75
2019-05-30T06:59:06.894Z,61.02
2019-05-30T07:00:12.260Z,61.24
2019-05-30T07:01:17.943Z,61.45
2019-05-30T07:02:24.122Z,61.55
2019-05-30T07:03:30.569Z,61.67
2019-05-30T07:04:50.804Z,61.79
2019-05-30T07:05:43.667Z,61.86
2019-05-30T07:06:49.255Z,61.85
2019-05-30T07:07:55.071Z,61.70
2019-05-30T07:09:00.106Z,61.62
2019-05-30T07:10:07.448Z,61.65
2019-05-30T07:11:12.694Z,61.54
2019-05-30T07:12:18.169Z,61.52
2019-05-30T07:13:23.345Z,61.61
2019-05-30T07:14:29.376Z,61.67
2019-05-30T07:15:34.527Z,61.79
2019-05-30T07:16:40.360Z,61.79
2019-05-30T07:17:45.407Z,61.76
2019-05-30T07:18:51.077Z,61.76
2019-05-30T07:19:56.282Z,61.70
2019-05-30T07:21:01.786Z,61.66
2019-05-30T07:22:06.814Z,61.60
2019-05-30T07:23:12.390Z,61.49
2019-05-30T07:24:17.706Z,61.37
2019-05-30T07:25:23.866Z,61.32
2019-05-30T07:26:29.842Z,61.38
2019-05-30T07:27:35.530Z,61.28
2019-05-30T07:28:40.472Z,61.23
2019-05-30T07:29:46.223Z,61.30
2019-05-30T07:30:51.275Z,61.46
2019-05-30T07:31:56.910Z,61.57
2019-05-30T07:33:01.935Z,61.73
2019-05-30T07:34:07.543Z,61.77
2019-05-30T07:35:13.137Z,61.89
2019-05-30T07:36:18.679Z,61.98
2019-05-30T07:37:24.500Z,62.13
2019-05-30T07:38:30.499Z,62.30
2019-05-30T07:39:37.505Z,62.43
2019-05-30T07:40:42.723Z,62.54
2019-05-30T07:42:04.875Z,62.70
2019-05-30T07:42:55.440Z,62.90
2019-05-30T07:44:00.384Z,63.02
2019-05-30T07:45:07.382Z,63.09
2019-05-30T07:46:12.439Z,63.06
2019-05-30T07:47:18.331Z,62.96
2019-05-30T07:48:23.408Z,62.89
2019-05-30T07:49:30.346Z,62.77
2019-05-30T07:50:35.304Z,62.73
2019-05-30T07:51:41.081Z,62.72
2019-05-30T07:52:46.837Z,62.69
2019-05-30T07:53:52.374Z,62.68
2019-05-30T07:54:57.381Z,62.75
2019-05-30T07:56:02.956Z,62.76
2019-05-30T07:57:07.959Z,62.79
2019-05-30T07:58:13.585Z,62.84
2019-05-30T07:59:18.577Z,62.89
2019-05-30T08:00:24.283Z,63.00
2019-05-30T08:01:30.432Z,63.12
2019-05-30T08:02:36.172Z,63.15
2019-05-30T08:03:41.185Z,63.18
2019-05-30T08:04:47.150Z,63.24
2019-05-30T08:05:52.099Z,63.28
2019-05-30T08:06:57.607Z,63.24
2019-05-30T08:08:02.615Z,63.19
2019-05-30T08:09:08.409Z,63.17
2019-05-30T08:10:14.961Z,63.17
2019-05-30T08:11:20.638Z,63.23
2019-05-30T08:12:25.818Z,63.19
2019-05-30T08:13:31.354Z,63.16
2019-05-30T08:14:37.365Z,63.10
2019-05-30T08:15:44.172Z,63.07
2019-05-30T08:16:49.556Z,63.07
2019-05-30T08:17:55.708Z,63.08
2019-05-30T08:19:00.664Z,63.02
2019-05-30T08:20:07.326Z,62.93
2019-05-30T08:21:12.347Z,62.86
2019-05-30T08:22:18.002Z,62.91
2019-05-30T08:23:23.014Z,62.95
2019-05-30T08:24:30.138Z,62.99
2019-05-30T08:25:36.563Z,63.04
2019-05-30T08:26:42.257Z,63.11
2019-05-30T08:27:47.400Z,63.19
2019-05-30T08:28:53.116Z,63.21
2019-05-30T08:29:58.335Z,63.21
2019-05-30T08:31:04.039Z,63.24
2019-05-30T08:32:09.261Z,63.30
2019-05-30T08:33:15.046Z,63.32
2019-05-30T08:34:20.389Z,63.34
2019-05-30T08:35:39.343Z,63.29
2019-05-30T08:36:32.965Z,63.33
2019-05-30T08:37:39.414Z,63.39
2019-05-30T08:38:47.948Z,63.45
2019-05-30T08:39:52.353Z,63.35
2019-05-30T08:40:57.382Z,63.25
2019-05-30T08:42:03.046Z,63.17
2019-05-30T08:43:08.108Z,63.06
2019-05-30T08:44:13.808Z,62.95
2019-05-30T08:45:19.416Z,62.85
2019-05-30T08:46:25.110Z,62.70
2019-05-30T08:47:30.455Z,62.58
2019-05-30T08:48:38.203Z,62.55
2019-05-30T08:49:43.275Z,62.44
2019-05-30T08:50:48.907Z,62.25
2019-05-30T08:51:54.261Z,62.00
2019-05-30T08:52:59.965Z,61.81
2019-05-30T08:54:05.160Z,61.58
2019-05-30T08:55:11.241Z,61.36
2019-05-30T08:56:16.729Z,61.12
2019-05-30T08:57:22.842Z,60.88
2019-05-30T08:58:27.784Z,60.72
2019-05-30T08:59:34.394Z,60.59
2019-05-30T09:00:39.410Z,60.37
2019-05-30T09:01:46.393Z,60.18
2019-05-30T09:02:51.998Z,60.00
2019-05-30T09:03:57.522Z,59.77
2019-05-30T09:05:06.125Z,59.63
2019-05-30T09:06:09.811Z,59.50
2019-05-30T09:07:14.981Z,59.46
2019-05-30T09:08:20.479Z,59.48
2019-05-30T09:09:25.617Z,59.44
2019-05-30T09:10:31.281Z,59.36
2019-05-30T09:11:37.685Z,59.33
2019-05-30T09:12:48.720Z,59.25
2019-05-30T09:13:50.335Z,59.20
2019-05-30T09:14:55.949Z,59.13
2019-05-30T09:16:01.147Z,59.08
2019-05-30T09:17:06.798Z,59.09
2019-05-30T09:18:11.802Z,59.09
2019-05-30T09:19:17.738Z,59.09
2019-05-30T09:20:22.961Z,59.12
2019-05-30T09:21:28.949Z,59.22
2019-05-30T09:22:33.960Z,59.29
2019-05-30T09:23:41.008Z,59.34
2019-05-30T09:24:47.131Z,59.43
2019-05-30T09:25:54.099Z,59.58
2019-05-30T09:26:59.244Z,59.73
2019-05-30T09:28:05.023Z,59.91
2019-05-30T09:29:10.490Z,60.08
2019-05-30T09:30:16.910Z,60.22
2019-05-30T09:31:22.424Z,60.36
2019-05-30T09:32:28.200Z,60.50
2019-05-30T09:33:33.363Z,60.59
2019-05-30T09:34:40.384Z,60.65
2019-05-30T09:35:46.935Z,60.72
2019-05-30T09:36:52.652Z,60.76
2019-05-30T09:37:57.703Z,60.82
2019-05-30T09:39:03.527Z,60.87
2019-05-30T09:40:10.499Z,60.92
2019-05-30T09:41:16.230Z,60.92
2019-05-30T09:42:21.333Z,60.90
2019-05-30T09:43:26.934Z,60.87
2019-05-30T09:44:32.035Z,60.93
2019-05-30T09:45:37.675Z,60.94
2019-05-30T09:46:42.658Z,60.97
2019-05-30T09:47:49.383Z,60.99
2019-05-30T09:48:55.032Z,61.05
2019-05-30T09:50:03.812Z,61.08
2019-05-30T09:51:07.702Z,61.14
2019-05-30T09:52:13.575Z,61.22
2019-05-30T09:53:18.516Z,61.29
2019-05-30T09:54:24.584Z,61.33
2019-05-30T09:55:29.620Z,61.34
2019-05-30T09:56:35.303Z,61.25
2019-05-30T09:57:42.354Z,61.19
2019-05-30T09:58:47.815Z,61.17
2019-05-30T09:59:52.938Z,61.10
2019-05-30T10:00:58.562Z,61.11
2019-05-30T10:02:03.669Z,61.10
2019-05-30T10:03:09.311Z,61.13
2019-05-30T10:04:14.622Z,61.16
2019-05-30T10:05:24.332Z,61.24
2019-05-30T10:06:30.040Z,61.31
2019-05-30T10:07:35.783Z,61.41
2019-05-30T10:08:41.023Z,61.53
2019-05-30T10:09:47.114Z,61.58
2019-05-30T10:10:53.375Z,61.67
2019-05-30T10:11:58.994Z,61.80
2019-05-30T10:13:04.229Z,61.80
2019-05-30T10:14:09.906Z,61.79
2019-05-30T10:15:15.289Z,61.72
2019-05-30T10:16:21.240Z,61.57
2019-05-30T10:17:26.295Z,61.49
2019-05-30T10:18:32.110Z,61.37
2019-05-30T10:19:37.215Z,61.24
2019-05-30T10:20:42.764Z,61.07
2019-05-30T10:21:48.902Z,60.99
2019-05-30T10:22:54.860Z,60.90
2019-05-30T10:23:59.772Z,60.86
2019-05-30T10:25:06.419Z,60.87
2019-05-30T10:26:11.430Z,60.86
2019-05-30T10:27:17.339Z,60.84
2019-05-30T10:28:22.346Z,60.76
2019-05-30T10:29:27.854Z,60.69
2019-05-30T10:30:33.042Z,60.65
2019-05-30T10:31:38.898Z,60.50
2019-05-30T10:32:46.525Z,60.28
2019-05-30T10:33:52.895Z,60.00
2019-05-30T10:34:58.050Z,59.78
2019-05-30T10:36:03.928Z,59.61
2019-05-30T10:37:08.930Z,59.47
2019-05-30T10:38:14.826Z,59.38
2019-05-30T10:39:19.782Z,59.32
2019-05-30T10:40:25.578Z,59.24
2019-05-30T10:41:30.526Z,59.13
2019-05-30T10:42:36.401Z,59.12
2019-05-30T10:43:41.396Z,59.11
2019-05-30T10:44:48.313Z,59.00
2019-05-30T10:45:53.816Z,58.87
2019-05-30T10:46:59.594Z,58.78
2019-05-30T10:48:04.799Z,58.68
2019-05-30T10:49:10.496Z,58.64
2019-05-30T10:50:16.860Z,58.71
2019-05-30T10:51:22.478Z,58.77
2019-05-30T10:52:27.421Z,58.82
2019-05-30T10:53:37.149Z,58.86
2019-05-30T10:54:40.542Z,58.87
2019-05-30T10:55:50.016Z,58.91
2019-05-30T10:56:55.682Z,58.96
2019-05-30T10:58:01.339Z,59.09
2019-05-30T10:59:06.651Z,59.19
2019-05-30T11:00:14.798Z,59.30
2019-05-30T11:01:20.023Z,59.36
2019-05-30T11:02:25.628Z,59.41
2019-05-30T11:03:31.195Z,59.35
2019-05-30T11:04:36.851Z,59.30
2019-05-30T11:05:46.200Z,59.30
2019-05-30T11:07:11.346Z,59.25
2019-05-30T11:08:16.522Z,59.20
2019-05-30T11:09:25.094Z,59.14
2019-05-30T11:10:38.917Z,59.05
2019-05-30T11:11:44.472Z,59.01
2019-05-30T11:12:56.177Z,59.00
2019-05-30T11:13:57.378Z,59.00
2019-05-30T11:15:02.458Z,58.97
2019-05-30T11:16:08.382Z,58.90
2019-05-30T11:17:13.469Z,58.86
2019-05-30T11:18:19.110Z,58.73
2019-05-30T11:19:24.148Z,58.69
2019-05-30T11:20:29.795Z,58.61
2019-05-30T11:21:34.712Z,58.49
2019-05-30T11:22:40.595Z,58.38
2019-05-30T11:23:45.566Z,58.33
2019-05-30T11:24:52.617Z,58.23
2019-05-30T11:25:58.860Z,58.13
2019-05-30T11:27:04.512Z,58.03
2019-05-30T11:28:09.731Z,57.90
2019-05-30T11:29:15.345Z,57.79
2019-05-30T11:30:22.795Z,57.70
2019-05-30T11:31:28.491Z,57.72
2019-05-30T11:32:33.852Z,57.71
2019-05-30T11:33:39.619Z,57.65
2019-05-30T11:34:44.763Z,57.61
2019-05-30T11:35:50.994Z,57.57
2019-05-30T11:36:57.270Z,57.55
2019-05-30T11:38:03.248Z,57.57
2019-05-30T11:39:08.479Z,57.54
2019-05-30T11:40:14.536Z,57.48
2019-05-30T11:41:19.668Z,57.45
2019-05-30T11:42:25.267Z,57.39
2019-05-30T11:43:30.307Z,57.32
2019-05-30T11:44:35.845Z,57.28
2019-05-30T11:45:41.009Z,57.23
2019-05-30T11:46:46.603Z,57.13
2019-05-30T11:47:51.837Z,57.01
2019-05-30T11:48:57.897Z,56.94
2019-05-30T11:50:03.040Z,56.96
2019-05-30T11:51:08.674Z,56.99
2019-05-30T11:52:13.628Z,57.04
2019-05-30T11:53:19.226Z,57.21
2019-05-30T11:54:24.169Z,57.35
2019-05-30T11:55:30.131Z,57.48
2019-05-30T11:56:35.143Z,57.55
2019-05-30T11:57:41.049Z,57.58
2019-05-30T11:58:46.427Z,57.61
2019-05-30T11:59:52.267Z,57.66
2019-05-30T12:00:58.323Z,57.77
2019-05-30T12:02:04.099Z,57.87
2019-05-30T12:03:09.176Z,58.03
2019-05-30T12:04:14.855Z,58.16
2019-05-30T12:05:20.534Z,58.30
2019-05-30T12:06:26.436Z,58.42
2019-05-30T12:07:36.341Z,58.49
2019-05-30T12:08:38.792Z,58.54
2019-05-30T12:09:43.893Z,58.59
2019-05-30T12:10:50.861Z,58.58
2019-05-30T12:11:57.400Z,58.62
2019-05-30T12:13:03.181Z,58.63
2019-05-30T12:14:08.206Z,58.65
2019-05-30T12:15:15.264Z,58.66
2019-05-30T12:16:20.323Z,58.65
2019-05-30T12:17:25.966Z,58.57
2019-05-30T12:18:31.019Z,58.50
2019-05-30T12:19:36.536Z,58.46
2019-05-30T12:20:42.157Z,58.36
2019-05-30T12:21:47.727Z,58.22
2019-05-30T12:22:53.778Z,58.09
2019-05-30T12:24:00.299Z,57.98
2019-05-30T12:25:05.699Z,57.92
2019-05-30T12:26:12.417Z,57.87
2019-05-30T12:27:17.359Z,57.81
2019-05-30T12:28:23.344Z,57.82
2019-05-30T12:29:28.362Z,57.88
2019-05-30T12:30:34.300Z,58.00
2019-05-30T12:31:39.223Z,58.12
2019-05-30T12:32:45.032Z,58.23
2019-05-30T12:33:50.454Z,58.35
2019-05-30T12:34:56.392Z,58.49
2019-05-30T12:36:02.604Z,58.55
2019-05-30T12:37:08.401Z,58.64
2019-05-30T12:38:13.432Z,58.68
2019-05-30T12:39:19.127Z,58.73
2019-05-30T12:40:24.229Z,58.77
2019-05-30T12:41:29.767Z,58.79
2019-05-30T12:42:35.139Z,58.82
2019-05-30T12:43:40.720Z,58.86
2019-05-30T12:44:46.049Z,58.92
2019-05-30T12:45:52.814Z,58.96
2019-05-30T12:46:59.131Z,59.01
2019-05-30T12:48:05.181Z,59.10
2019-05-30T12:49:10.407Z,59.15
2019-05-30T12:50:17.106Z,59.21
2019-05-30T12:51:22.203Z,59.31
2019-05-30T12:52:27.908Z,59.39
2019-05-30T12:53:32.999Z,59.49
2019-05-30T12:54:38.809Z,59.56
2019-05-30T12:55:44.067Z,59.65
2019-05-30T12:56:49.662Z,59.72
2019-05-30T12:57:54.689Z,59.78
2019-05-30T12:59:01.146Z,59.84
2019-05-30T13:00:14.184Z,59.90
2019-05-30T13:01:14.542Z,59.97
2019-05-30T13:02:19.714Z,59.99
2019-05-30T13:03:25.556Z,60.05
2019-05-30T13:04:30.940Z,60.09
2019-05-30T13:05:37.049Z,60.19
2019-05-30T13:06:42.278Z,60.27
2019-05-30T13:07:48.299Z,60.33
2019-05-30T13:08:53.336Z,60.38
2019-05-30T13:09:59.171Z,60.45
2019-05-30T13:11:05.644Z,60.48
2019-05-30T13:12:11.268Z,60.57
2019-05-30T13:13:16.406Z,60.62
2019-05-30T13:14:22.289Z,60.67
2019-05-30T13:15:27.403Z,60.73
2019-05-30T13:16:33.044Z,60.80
2019-05-30T13:17:38.529Z,60.87
2019-05-30T13:18:44.118Z,60.89
2019-05-30T13:19:49.216Z,60.96
2019-05-30T13:20:55.946Z,60.94
2019-05-30T13:22:01.392Z,60.92
2019-05-30T13:23:07.146Z,60.85
2019-05-30T13:24:12.068Z,60.83
2019-05-30T13:25:18.671Z,60.77
2019-05-30T13:26:23.720Z,60.73
2019-05-30T13:27:29.319Z,60.70
2019-05-30T13:28:34.627Z,60.66
2019-05-30T13:29:40.584Z,60.66
2019-05-30T13:30:45.800Z,60.64
2019-05-30T13:31:51.435Z,60.59
2019-05-30T13:32:56.597Z,60.55
2019-05-30T13:34:02.918Z,60.53
2019-05-30T13:35:09.672Z,60.50
2019-05-30T13:36:15.236Z,60.51
2019-05-30T13:37:20.305Z,60.50
2019-05-30T13:38:26.880Z,60.46
2019-05-30T13:39:31.924Z,60.45
2019-05-30T13:40:37.574Z,60.43
2019-05-30T13:41:42.773Z,60.43
2019-05-30T13:42:48.329Z,60.42
2019-05-30T13:43:53.276Z,60.42
2019-05-30T13:44:59.903Z,60.43
2019-05-30T13:46:06.275Z,60.45
2019-05-30T13:47:12.189Z,60.45
2019-05-30T13:48:17.151Z,60.47
2019-05-30T13:49:22.647Z,60.46
2019-05-30T13:50:27.615Z,60.47
2019-05-30T13:51:33.215Z,60.52
2019-05-30T13:52:38.588Z,60.51
2019-05-30T13:53:44.375Z,60.53
2019-05-30T13:54:49.516Z,60.54
2019-05-30T13:55:55.244Z,60.53
2019-05-30T13:57:01.567Z,60.50
2019-05-30T13:58:07.815Z,60.54
2019-05-30T13:59:12.859Z,60.54
2019-05-30T14:00:18.969Z,60.54
2019-05-30T14:01:24.050Z,60.58
2019-05-30T14:02:29.973Z,60.61
2019-05-30T14:03:35.393Z,60.63
2019-05-30T14:04:41.198Z,60.63
2019-05-30T14:05:46.340Z,60.64
2019-05-30T14:06:52.070Z,60.62
2019-05-30T14:07:57.254Z,60.57
2019-05-30T14:09:02.784Z,60.50